sensor_id;sensor_type;location;lat;lon;timestamp;P1;durP1;ratioP1;P2;durP2;ratioP2
15889;SDS011;8043;49.388;12.128;2023-12-20T00:01:59;9.38;;;4.08;;
15889;SDS011;8043;49.388;12.128;2023-12-20T00:07:02;7.60;;;4.75;;
15889;SDS011;8043;49.388;12.128;2023-12-20T00:12:06;4.65;;;3.47;;
15889;SDS011;8043;49.388;12.128;2023-12-20T00:17:09;4.35;;;2.85;;
15889;SDS011;8043;49.388;12.128;2023-12-20T00:27:13;8.35;;;4.42;;
15889;SDS011;8043;49.388;12.128;2023-12-20T00:32:17;8.50;;;5.47;;
15889;SDS011;8043;49.388;12.128;2023-12-20T00:37:20;5.62;;;4.22;;
15889;SDS011;8043;49.388;12.128;2023-12-20T00:42:23;7.10;;;3.37;;
15889;SDS011;8043;49.388;12.128;2023-12-20T00:52:27;6.17;;;3.30;;
15889;SDS011;8043;49.388;12.128;2023-12-20T00:57:30;7.47;;;3.52;;
15889;SDS011;8043;49.388;12.128;2023-12-20T01:02:33;8.18;;;3.90;;
15889;SDS011;8043;49.388;12.128;2023-12-20T01:07:37;6.10;;;3.85;;
15889;SDS011;8043;49.388;12.128;2023-12-20T01:12:39;5.22;;;3.55;;
15889;SDS011;8043;49.388;12.128;2023-12-20T01:17:41;5.03;;;3.98;;
15889;SDS011;8043;49.388;12.128;2023-12-20T01:22:44;8.48;;;4.45;;
15889;SDS011;8043;49.388;12.128;2023-12-20T01:27:46;5.25;;;3.70;;
15889;SDS011;8043;49.388;12.128;2023-12-20T01:32:49;12.70;;;3.50;;
15889;SDS011;8043;49.388;12.128;2023-12-20T01:37:52;4.78;;;3.25;;
15889;SDS011;8043;49.388;12.128;2023-12-20T01:43:00;7.17;;;4.12;;
15889;SDS011;8043;49.388;12.128;2023-12-20T01:48:03;7.85;;;3.77;;
15889;SDS011;8043;49.388;12.128;2023-12-20T01:53:09;9.78;;;4.50;;
15889;SDS011;8043;49.388;12.128;2023-12-20T01:58:13;7.28;;;3.45;;
15889;SDS011;8043;49.388;12.128;2023-12-20T02:03:16;4.22;;;3.80;;
15889;SDS011;8043;49.388;12.128;2023-12-20T02:08:18;7.62;;;4.08;;
15889;SDS011;8043;49.388;12.128;2023-12-20T02:18:23;4.87;;;2.65;;
15889;SDS011;8043;49.388;12.128;2023-12-20T02:23:26;6.80;;;3.62;;
15889;SDS011;8043;49.388;12.128;2023-12-20T02:28:28;18.60;;;4.55;;
15889;SDS011;8043;49.388;12.128;2023-12-20T02:38:34;13.68;;;3.62;;
15889;SDS011;8043;49.388;12.128;2023-12-20T02:43:37;3.87;;;2.77;;
15889;SDS011;8043;49.388;12.128;2023-12-20T02:48:39;6.53;;;3.40;;
15889;SDS011;8043;49.388;12.128;2023-12-20T02:53:44;7.12;;;2.83;;
15889;SDS011;8043;49.388;12.128;2023-12-20T02:58:48;3.15;;;2.72;;
15889;SDS011;8043;49.388;12.128;2023-12-20T03:04:09;3.98;;;2.80;;
15889;SDS011;8043;49.388;12.128;2023-12-20T03:09:12;4.83;;;3.22;;
15889;SDS011;8043;49.388;12.128;2023-12-20T03:14:15;13.03;;;3.85;;
15889;SDS011;8043;49.388;12.128;2023-12-20T03:19:17;2.45;;;2.17;;
15889;SDS011;8043;49.388;12.128;2023-12-20T03:24:20;6.50;;;3.50;;
15889;SDS011;8043;49.388;12.128;2023-12-20T03:29:24;4.03;;;2.83;;
15889;SDS011;8043;49.388;12.128;2023-12-20T03:34:28;3.27;;;2.95;;
15889;SDS011;8043;49.388;12.128;2023-12-20T03:39:30;5.03;;;3.00;;
15889;SDS011;8043;49.388;12.128;2023-12-20T03:44:33;7.40;;;4.15;;
15889;SDS011;8043;49.388;12.128;2023-12-20T03:49:37;4.30;;;2.65;;
15889;SDS011;8043;49.388;12.128;2023-12-20T03:54:39;6.00;;;2.75;;
15889;SDS011;8043;49.388;12.128;2023-12-20T03:59:45;4.87;;;3.20;;
15889;SDS011;8043;49.388;12.128;2023-12-20T04:04:49;6.60;;;2.35;;
15889;SDS011;8043;49.388;12.128;2023-12-20T04:09:55;3.52;;;2.50;;
15889;SDS011;8043;49.388;12.128;2023-12-20T04:14:58;2.42;;;1.57;;
15889;SDS011;8043;49.388;12.128;2023-12-20T04:20:00;1.90;;;1.75;;
15889;SDS011;8043;49.388;12.128;2023-12-20T04:25:03;0.82;;;0.82;;
15889;SDS011;8043;49.388;12.128;2023-12-20T04:30:08;0.70;;;0.70;;
15889;SDS011;8043;49.388;12.128;2023-12-20T04:35:11;0.98;;;0.85;;
15889;SDS011;8043;49.388;12.128;2023-12-20T04:40:13;0.30;;;0.30;;
15889;SDS011;8043;49.388;12.128;2023-12-20T04:45:16;0.50;;;0.50;;
15889;SDS011;8043;49.388;12.128;2023-12-20T04:50:20;0.20;;;0.20;;
15889;SDS011;8043;49.388;12.128;2023-12-20T04:55:22;0.35;;;0.35;;
15889;SDS011;8043;49.388;12.128;2023-12-20T05:00:25;0.40;;;0.40;;
15889;SDS011;8043;49.388;12.128;2023-12-20T05:10:29;0.40;;;0.40;;
15889;SDS011;8043;49.388;12.128;2023-12-20T05:15:32;0.53;;;0.42;;
15889;SDS011;8043;49.388;12.128;2023-12-20T05:20:35;0.40;;;0.40;;
15889;SDS011;8043;49.388;12.128;2023-12-20T05:30:39;0.23;;;0.23;;
15889;SDS011;8043;49.388;12.128;2023-12-20T05:35:42;0.40;;;0.40;;
15889;SDS011;8043;49.388;12.128;2023-12-20T05:40:45;0.30;;;0.30;;
15889;SDS011;8043;49.388;12.128;2023-12-20T05:45:48;0.40;;;0.40;;
15889;SDS011;8043;49.388;12.128;2023-12-20T05:50:50;0.70;;;0.70;;
15889;SDS011;8043;49.388;12.128;2023-12-20T05:55:52;0.55;;;0.55;;
15889;SDS011;8043;49.388;12.128;2023-12-20T06:05:57;0.33;;;0.33;;
15889;SDS011;8043;49.388;12.128;2023-12-20T06:11:01;0.30;;;0.30;;
15889;SDS011;8043;49.388;12.128;2023-12-20T06:21:07;0.20;;;0.20;;
15889;SDS011;8043;49.388;12.128;2023-12-20T06:26:11;0.40;;;0.40;;
15889;SDS011;8043;49.388;12.128;2023-12-20T06:36:15;0.30;;;0.30;;
15889;SDS011;8043;49.388;12.128;2023-12-20T06:41:18;0.30;;;0.30;;
15889;SDS011;8043;49.388;12.128;2023-12-20T06:51:22;0.88;;;0.45;;
15889;SDS011;8043;49.388;12.128;2023-12-20T06:56:26;1.00;;;0.50;;
15889;SDS011;8043;49.388;12.128;2023-12-20T07:06:30;0.57;;;0.47;;
15889;SDS011;8043;49.388;12.128;2023-12-20T07:11:33;0.28;;;0.28;;
15889;SDS011;8043;49.388;12.128;2023-12-20T07:16:35;0.57;;;0.35;;
15889;SDS011;8043;49.388;12.128;2023-12-20T07:21:37;1.22;;;0.85;;
15889;SDS011;8043;49.388;12.128;2023-12-20T07:26:40;0.57;;;0.50;;
15889;SDS011;8043;49.388;12.128;2023-12-20T07:31:43;2.05;;;0.80;;
15889;SDS011;8043;49.388;12.128;2023-12-20T07:36:46;1.67;;;1.00;;
15889;SDS011;8043;49.388;12.128;2023-12-20T07:41:48;2.20;;;0.70;;
15889;SDS011;8043;49.388;12.128;2023-12-20T07:46:52;0.50;;;0.50;;
15889;SDS011;8043;49.388;12.128;2023-12-20T07:51:54;0.45;;;0.45;;
15889;SDS011;8043;49.388;12.128;2023-12-20T07:56:58;0.47;;;0.47;;
15889;SDS011;8043;49.388;12.128;2023-12-20T08:02:02;0.70;;;0.50;;
15889;SDS011;8043;49.388;12.128;2023-12-20T08:07:05;0.98;;;0.98;;
15889;SDS011;8043;49.388;12.128;2023-12-20T08:12:08;1.67;;;0.90;;
15889;SDS011;8043;49.388;12.128;2023-12-20T08:17:10;7.65;;;0.93;;
15889;SDS011;8043;49.388;12.128;2023-12-20T08:22:13;0.60;;;0.60;;
15889;SDS011;8043;49.388;12.128;2023-12-20T08:27:15;1.00;;;0.90;;
15889;SDS011;8043;49.388;12.128;2023-12-20T08:32:18;0.70;;;0.70;;
15889;SDS011;8043;49.388;12.128;2023-12-20T08:37:20;0.50;;;0.50;;
15889;SDS011;8043;49.388;12.128;2023-12-20T08:42:23;0.40;;;0.40;;
15889;SDS011;8043;49.388;12.128;2023-12-20T08:47:27;0.62;;;0.62;;
15889;SDS011;8043;49.388;12.128;2023-12-20T08:52:50;0.80;;;0.80;;
15889;SDS011;8043;49.388;12.128;2023-12-20T08:57:53;1.25;;;0.80;;
15889;SDS011;8043;49.388;12.128;2023-12-20T09:02:55;0.98;;;0.75;;
15889;SDS011;8043;49.388;12.128;2023-12-20T09:07:58;0.60;;;0.60;;
15889;SDS011;8043;49.388;12.128;2023-12-20T09:13:01;1.07;;;0.98;;
15889;SDS011;8043;49.388;12.128;2023-12-20T09:18:04;0.55;;;0.55;;
15889;SDS011;8043;49.388;12.128;2023-12-20T09:23:08;1.77;;;0.95;;
15889;SDS011;8043;49.388;12.128;2023-12-20T09:28:10;2.92;;;2.00;;
15889;SDS011;8043;49.388;12.128;2023-12-20T09:33:14;2.17;;;1.98;;
15889;SDS011;8043;49.388;12.128;2023-12-20T09:38:17;0.98;;;0.57;;
15889;SDS011;8043;49.388;12.128;2023-12-20T09:43:19;2.47;;;1.40;;
15889;SDS011;8043;49.388;12.128;2023-12-20T09:48:22;1.12;;;1.12;;
15889;SDS011;8043;49.388;12.128;2023-12-20T09:53:26;4.20;;;1.30;;
15889;SDS011;8043;49.388;12.128;2023-12-20T09:58:31;1.67;;;1.52;;
15889;SDS011;8043;49.388;12.128;2023-12-20T10:03:34;2.05;;;1.50;;
15889;SDS011;8043;49.388;12.128;2023-12-20T10:08:37;1.57;;;1.02;;
15889;SDS011;8043;49.388;12.128;2023-12-20T10:13:40;1.05;;;0.95;;
15889;SDS011;8043;49.388;12.128;2023-12-20T10:18:43;1.30;;;1.20;;
15889;SDS011;8043;49.388;12.128;2023-12-20T10:23:47;1.27;;;1.17;;
15889;SDS011;8043;49.388;12.128;2023-12-20T10:28:54;1.82;;;0.98;;
15889;SDS011;8043;49.388;12.128;2023-12-20T10:33:57;4.87;;;2.45;;
15889;SDS011;8043;49.388;12.128;2023-12-20T10:39:00;5.75;;;2.35;;
15889;SDS011;8043;49.388;12.128;2023-12-20T10:44:04;1.53;;;0.90;;
15889;SDS011;8043;49.388;12.128;2023-12-20T10:49:07;3.03;;;1.40;;
15889;SDS011;8043;49.388;12.128;2023-12-20T10:54:10;2.77;;;1.87;;
15889;SDS011;8043;49.388;12.128;2023-12-20T10:59:13;1.67;;;1.40;;
15889;SDS011;8043;49.388;12.128;2023-12-20T11:04:19;1.20;;;1.20;;
15889;SDS011;8043;49.388;12.128;2023-12-20T11:09:40;0.70;;;0.70;;
15889;SDS011;8043;49.388;12.128;2023-12-20T11:14:46;11.68;;;4.10;;
15889;SDS011;8043;49.388;12.128;2023-12-20T11:25:06;8.75;;;1.67;;
15889;SDS011;8043;49.388;12.128;2023-12-20T11:30:11;2.62;;;1.50;;
15889;SDS011;8043;49.388;12.128;2023-12-20T11:40:20;3.30;;;1.00;;
15889;SDS011;8043;49.388;12.128;2023-12-20T11:45:24;0.88;;;0.88;;
15889;SDS011;8043;49.388;12.128;2023-12-20T11:50:28;0.85;;;0.60;;
15889;SDS011;8043;49.388;12.128;2023-12-20T11:55:33;4.67;;;1.75;;
15889;SDS011;8043;49.388;12.128;2023-12-20T12:00:37;0.47;;;0.47;;
15889;SDS011;8043;49.388;12.128;2023-12-20T12:05:39;1.17;;;0.90;;
15889;SDS011;8043;49.388;12.128;2023-12-20T12:10:42;5.67;;;0.90;;
15889;SDS011;8043;49.388;12.128;2023-12-20T12:15:46;1.50;;;0.80;;
15889;SDS011;8043;49.388;12.128;2023-12-20T12:20:51;1.40;;;1.30;;
15889;SDS011;8043;49.388;12.128;2023-12-20T12:25:57;1.27;;;1.17;;
15889;SDS011;8043;49.388;12.128;2023-12-20T12:31:00;0.78;;;0.78;;
15889;SDS011;8043;49.388;12.128;2023-12-20T12:36:03;1.10;;;1.00;;
15889;SDS011;8043;49.388;12.128;2023-12-20T12:41:07;0.80;;;0.60;;
15889;SDS011;8043;49.388;12.128;2023-12-20T12:46:11;1.25;;;0.90;;
15889;SDS011;8043;49.388;12.128;2023-12-20T12:51:15;0.82;;;0.78;;
15889;SDS011;8043;49.388;12.128;2023-12-20T12:56:17;1.10;;;0.68;;
15889;SDS011;8043;49.388;12.128;2023-12-20T13:01:20;0.95;;;0.70;;
15889;SDS011;8043;49.388;12.128;2023-12-20T13:06:23;15.48;;;2.72;;
15889;SDS011;8043;49.388;12.128;2023-12-20T13:11:25;1.07;;;0.80;;
15889;SDS011;8043;49.388;12.128;2023-12-20T13:16:28;1.02;;;0.82;;
15889;SDS011;8043;49.388;12.128;2023-12-20T13:21:31;3.02;;;1.17;;
15889;SDS011;8043;49.388;12.128;2023-12-20T13:26:33;1.37;;;1.20;;
15889;SDS011;8043;49.388;12.128;2023-12-20T13:31:36;1.60;;;1.37;;
15889;SDS011;8043;49.388;12.128;2023-12-20T13:36:40;4.30;;;2.35;;
15889;SDS011;8043;49.388;12.128;2023-12-20T13:41:43;1.47;;;1.37;;
15889;SDS011;8043;49.388;12.128;2023-12-20T13:46:45;2.42;;;1.45;;
15889;SDS011;8043;49.388;12.128;2023-12-20T13:51:49;5.40;;;1.50;;
15889;SDS011;8043;49.388;12.128;2023-12-20T13:56:53;1.52;;;1.30;;
15889;SDS011;8043;49.388;12.128;2023-12-20T14:01:58;2.33;;;1.22;;
15889;SDS011;8043;49.388;12.128;2023-12-20T14:07:01;1.42;;;0.62;;
15889;SDS011;8043;49.388;12.128;2023-12-20T14:12:05;1.77;;;1.10;;
15889;SDS011;8043;49.388;12.128;2023-12-20T14:17:10;0.42;;;0.42;;
15889;SDS011;8043;49.388;12.128;2023-12-20T14:22:13;4.08;;;1.80;;
15889;SDS011;8043;49.388;12.128;2023-12-20T14:27:17;0.50;;;0.50;;
15889;SDS011;8043;49.388;12.128;2023-12-20T14:32:20;3.62;;;0.95;;
15889;SDS011;8043;49.388;12.128;2023-12-20T14:37:23;5.65;;;0.93;;
15889;SDS011;8043;49.388;12.128;2023-12-20T14:42:26;4.65;;;1.10;;
15889;SDS011;8043;49.388;12.128;2023-12-20T14:47:29;1.70;;;1.35;;
15889;SDS011;8043;49.388;12.128;2023-12-20T14:52:32;3.90;;;0.90;;
15889;SDS011;8043;49.388;12.128;2023-12-20T14:57:35;0.82;;;0.82;;
15889;SDS011;8043;49.388;12.128;2023-12-20T15:02:38;1.32;;;0.53;;
15889;SDS011;8043;49.388;12.128;2023-12-20T15:07:40;0.47;;;0.47;;
15889;SDS011;8043;49.388;12.128;2023-12-20T15:12:42;1.37;;;1.05;;
15889;SDS011;8043;49.388;12.128;2023-12-20T15:17:46;0.75;;;0.72;;
15889;SDS011;8043;49.388;12.128;2023-12-20T15:22:48;0.90;;;0.90;;
15889;SDS011;8043;49.388;12.128;2023-12-20T15:27:51;0.98;;;0.90;;
15889;SDS011;8043;49.388;12.128;2023-12-20T15:32:54;0.95;;;0.90;;
15889;SDS011;8043;49.388;12.128;2023-12-20T15:37:57;2.62;;;1.47;;
15889;SDS011;8043;49.388;12.128;2023-12-20T15:42:59;12.25;;;1.12;;
15889;SDS011;8043;49.388;12.128;2023-12-20T15:48:02;0.85;;;0.50;;
15889;SDS011;8043;49.388;12.128;2023-12-20T15:53:11;3.95;;;2.15;;
15889;SDS011;8043;49.388;12.128;2023-12-20T15:58:10;0.20;;;0.20;;
15889;SDS011;8043;49.388;12.128;2023-12-20T16:03:12;2.87;;;1.37;;
15889;SDS011;8043;49.388;12.128;2023-12-20T16:08:14;0.95;;;0.93;;
15889;SDS011;8043;49.388;12.128;2023-12-20T16:13:17;1.03;;;0.80;;
15889;SDS011;8043;49.388;12.128;2023-12-20T16:18:20;1.22;;;1.15;;
15889;SDS011;8043;49.388;12.128;2023-12-20T16:23:23;6.67;;;0.60;;
15889;SDS011;8043;49.388;12.128;2023-12-20T16:28:26;7.70;;;1.35;;
15889;SDS011;8043;49.388;12.128;2023-12-20T16:38:30;0.47;;;0.47;;
15889;SDS011;8043;49.388;12.128;2023-12-20T16:43:33;2.35;;;1.85;;
15889;SDS011;8043;49.388;12.128;2023-12-20T16:48:35;1.20;;;1.10;;
15889;SDS011;8043;49.388;12.128;2023-12-20T16:53:38;5.42;;;1.50;;
15889;SDS011;8043;49.388;12.128;2023-12-20T16:58:40;2.10;;;1.20;;
15889;SDS011;8043;49.388;12.128;2023-12-20T17:03:43;2.42;;;1.82;;
15889;SDS011;8043;49.388;12.128;2023-12-20T17:08:46;5.75;;;1.42;;
15889;SDS011;8043;49.388;12.128;2023-12-20T17:13:50;1.35;;;1.00;;
15889;SDS011;8043;49.388;12.128;2023-12-20T17:18:53;2.02;;;1.00;;
15889;SDS011;8043;49.388;12.128;2023-12-20T17:23:56;7.95;;;1.50;;
15889;SDS011;8043;49.388;12.128;2023-12-20T17:29:00;2.95;;;1.92;;
15889;SDS011;8043;49.388;12.128;2023-12-20T17:34:03;4.47;;;1.30;;
15889;SDS011;8043;49.388;12.128;2023-12-20T17:39:07;3.40;;;1.92;;
15889;SDS011;8043;49.388;12.128;2023-12-20T17:44:10;2.22;;;2.00;;
15889;SDS011;8043;49.388;12.128;2023-12-20T17:49:13;3.02;;;2.52;;
15889;SDS011;8043;49.388;12.128;2023-12-20T17:54:18;1.15;;;1.05;;
15889;SDS011;8043;49.388;12.128;2023-12-20T17:59:21;1.72;;;1.50;;
15889;SDS011;8043;49.388;12.128;2023-12-20T18:04:24;4.33;;;1.27;;
15889;SDS011;8043;49.388;12.128;2023-12-20T18:09:27;5.22;;;1.30;;
15889;SDS011;8043;49.388;12.128;2023-12-20T18:14:29;1.32;;;1.05;;
15889;SDS011;8043;49.388;12.128;2023-12-20T18:19:32;0.53;;;0.53;;
15889;SDS011;8043;49.388;12.128;2023-12-20T18:24:35;0.80;;;0.40;;
15889;SDS011;8043;49.388;12.128;2023-12-20T18:29:40;0.90;;;0.82;;
15889;SDS011;8043;49.388;12.128;2023-12-20T18:34:43;0.82;;;0.82;;
15889;SDS011;8043;49.388;12.128;2023-12-20T18:39:45;0.90;;;0.90;;
15889;SDS011;8043;49.388;12.128;2023-12-20T18:44:48;1.85;;;1.07;;
15889;SDS011;8043;49.388;12.128;2023-12-20T18:49:51;5.20;;;1.55;;
15889;SDS011;8043;49.388;12.128;2023-12-20T18:54:58;1.95;;;1.17;;
15889;SDS011;8043;49.388;12.128;2023-12-20T18:59:58;2.05;;;0.88;;
15889;SDS011;8043;49.388;12.128;2023-12-20T19:05:00;2.72;;;1.20;;
15889;SDS011;8043;49.388;12.128;2023-12-20T19:10:03;0.98;;;0.98;;
15889;SDS011;8043;49.388;12.128;2023-12-20T19:15:07;5.55;;;1.60;;
15889;SDS011;8043;49.388;12.128;2023-12-20T19:20:10;1.50;;;1.20;;
15889;SDS011;8043;49.388;12.128;2023-12-20T19:30:16;1.62;;;1.12;;
15889;SDS011;8043;49.388;12.128;2023-12-20T19:40:23;9.23;;;1.23;;
15889;SDS011;8043;49.388;12.128;2023-12-20T19:45:26;1.82;;;1.62;;
15889;SDS011;8043;49.388;12.128;2023-12-20T19:50:35;1.00;;;1.00;;
15889;SDS011;8043;49.388;12.128;2023-12-20T19:55:49;5.55;;;1.27;;
15889;SDS011;8043;49.388;12.128;2023-12-20T20:00:52;5.92;;;2.33;;
15889;SDS011;8043;49.388;12.128;2023-12-20T20:05:55;1.60;;;1.45;;
15889;SDS011;8043;49.388;12.128;2023-12-20T20:10:58;1.12;;;1.05;;
15889;SDS011;8043;49.388;12.128;2023-12-20T20:16:01;3.72;;;1.30;;
15889;SDS011;8043;49.388;12.128;2023-12-20T20:21:03;5.28;;;1.92;;
15889;SDS011;8043;49.388;12.128;2023-12-20T20:26:06;0.98;;;0.88;;
15889;SDS011;8043;49.388;12.128;2023-12-20T20:31:08;3.60;;;1.95;;
15889;SDS011;8043;49.388;12.128;2023-12-20T20:36:12;0.90;;;0.78;;
15889;SDS011;8043;49.388;12.128;2023-12-20T20:41:14;0.80;;;0.80;;
15889;SDS011;8043;49.388;12.128;2023-12-20T20:46:38;1.57;;;1.12;;
15889;SDS011;8043;49.388;12.128;2023-12-20T20:51:40;2.35;;;1.42;;
15889;SDS011;8043;49.388;12.128;2023-12-20T20:56:43;1.55;;;0.93;;
15889;SDS011;8043;49.388;12.128;2023-12-20T21:01:47;2.55;;;1.35;;
15889;SDS011;8043;49.388;12.128;2023-12-20T21:06:51;2.92;;;1.70;;
15889;SDS011;8043;49.388;12.128;2023-12-20T21:11:55;1.22;;;0.90;;
15889;SDS011;8043;49.388;12.128;2023-12-20T21:16:57;9.43;;;2.08;;
15889;SDS011;8043;49.388;12.128;2023-12-20T21:22:01;2.33;;;1.42;;
15889;SDS011;8043;49.388;12.128;2023-12-20T21:27:09;2.22;;;0.98;;
15889;SDS011;8043;49.388;12.128;2023-12-20T21:32:13;1.37;;;1.27;;
15889;SDS011;8043;49.388;12.128;2023-12-20T21:37:20;2.40;;;1.65;;
15889;SDS011;8043;49.388;12.128;2023-12-20T21:47:24;4.83;;;1.17;;
15889;SDS011;8043;49.388;12.128;2023-12-20T21:52:27;2.20;;;0.75;;
15889;SDS011;8043;49.388;12.128;2023-12-20T21:57:30;0.23;;;0.23;;
15889;SDS011;8043;49.388;12.128;2023-12-20T22:02:33;0.90;;;0.85;;
15889;SDS011;8043;49.388;12.128;2023-12-20T22:07:36;1.15;;;0.62;;
15889;SDS011;8043;49.388;12.128;2023-12-20T22:12:39;0.55;;;0.55;;
15889;SDS011;8043;49.388;12.128;2023-12-20T22:17:41;0.70;;;0.70;;
15889;SDS011;8043;49.388;12.128;2023-12-20T22:22:44;1.75;;;0.65;;
15889;SDS011;8043;49.388;12.128;2023-12-20T22:27:47;3.12;;;1.07;;
15889;SDS011;8043;49.388;12.128;2023-12-20T22:32:50;2.40;;;1.07;;
15889;SDS011;8043;49.388;12.128;2023-12-20T22:37:55;1.55;;;1.05;;
15889;SDS011;8043;49.388;12.128;2023-12-20T22:42:57;1.52;;;1.00;;
15889;SDS011;8043;49.388;12.128;2023-12-20T22:48:05;1.77;;;1.42;;
15889;SDS011;8043;49.388;12.128;2023-12-20T22:53:08;15.35;;;1.85;;
15889;SDS011;8043;49.388;12.128;2023-12-20T22:58:10;1.05;;;0.95;;
15889;SDS011;8043;49.388;12.128;2023-12-20T23:03:13;0.72;;;0.72;;
15889;SDS011;8043;49.388;12.128;2023-12-20T23:08:16;0.88;;;0.62;;
15889;SDS011;8043;49.388;12.128;2023-12-20T23:18:21;3.45;;;0.98;;
15889;SDS011;8043;49.388;12.128;2023-12-20T23:23:24;0.62;;;0.62;;
15889;SDS011;8043;49.388;12.128;2023-12-20T23:28:27;0.45;;;0.45;;
15889;SDS011;8043;49.388;12.128;2023-12-20T23:38:32;1.27;;;1.27;;
15889;SDS011;8043;49.388;12.128;2023-12-20T23:43:35;1.30;;;0.85;;
15889;SDS011;8043;49.388;12.128;2023-12-20T23:48:38;4.70;;;1.50;;
15889;SDS011;8043;49.388;12.128;2023-12-20T23:53:40;2.40;;;0.90;;
15889;SDS011;8043;49.388;12.128;2023-12-20T23:58:45;4.37;;;1.45;;
